sensor_id;sensor_type;location;lat;lon;timestamp;P1;durP1;ratioP1;P2;durP2;ratioP2
81864;SDS011;71313;43.514;1.500;2024-02-23T00:00:26;7.57;;;1.20;;
81864;SDS011;71313;43.514;1.500;2024-02-23T00:02:52;6.10;;;0.82;;
81864;SDS011;71313;43.514;1.500;2024-02-23T00:05:19;5.75;;;1.20;;
81864;SDS011;71313;43.514;1.500;2024-02-23T00:07:44;5.00;;;1.00;;
81864;SDS011;71313;43.514;1.500;2024-02-23T00:10:10;5.65;;;1.15;;
81864;SDS011;71313;43.514;1.500;2024-02-23T00:12:36;6.03;;;1.13;;
81864;SDS011;71313;43.514;1.500;2024-02-23T00:15:01;4.78;;;1.20;;
81864;SDS011;71313;43.514;1.500;2024-02-23T00:17:26;7.75;;;1.48;;
81864;SDS011;71313;43.514;1.500;2024-02-23T00:19:52;6.90;;;1.80;;
81864;SDS011;71313;43.514;1.500;2024-02-23T00:22:18;6.28;;;1.50;;
81864;SDS011;71313;43.514;1.500;2024-02-23T00:24:43;4.93;;;1.30;;
81864;SDS011;71313;43.514;1.500;2024-02-23T00:27:09;5.95;;;1.30;;
81864;SDS011;71313;43.514;1.500;2024-02-23T00:29:34;6.13;;;1.00;;
81864;SDS011;71313;43.514;1.500;2024-02-23T00:32:00;5.90;;;1.40;;
81864;SDS011;71313;43.514;1.500;2024-02-23T00:34:26;4.00;;;1.00;;
81864;SDS011;71313;43.514;1.500;2024-02-23T00:36:51;4.53;;;1.10;;
81864;SDS011;71313;43.514;1.500;2024-02-23T00:39:16;5.88;;;1.50;;
81864;SDS011;71313;43.514;1.500;2024-02-23T00:41:42;4.60;;;0.90;;
81864;SDS011;71313;43.514;1.500;2024-02-23T00:44:07;5.60;;;1.30;;
81864;SDS011;71313;43.514;1.500;2024-02-23T00:46:33;4.00;;;0.90;;
81864;SDS011;71313;43.514;1.500;2024-02-23T00:48:59;7.75;;;1.00;;
81864;SDS011;71313;43.514;1.500;2024-02-23T00:51:25;8.13;;;1.30;;
81864;SDS011;71313;43.514;1.500;2024-02-23T00:53:50;6.63;;;1.05;;
81864;SDS011;71313;43.514;1.500;2024-02-23T00:56:15;6.25;;;1.40;;
81864;SDS011;71313;43.514;1.500;2024-02-23T00:58:41;8.18;;;1.27;;
81864;SDS011;71313;43.514;1.500;2024-02-23T01:01:06;4.78;;;1.05;;
81864;SDS011;71313;43.514;1.500;2024-02-23T01:03:31;6.90;;;1.58;;
81864;SDS011;71313;43.514;1.500;2024-02-23T01:05:57;5.18;;;1.20;;
81864;SDS011;71313;43.514;1.500;2024-02-23T01:08:23;5.45;;;0.98;;
81864;SDS011;71313;43.514;1.500;2024-02-23T01:10:48;6.65;;;1.70;;
81864;SDS011;71313;43.514;1.500;2024-02-23T01:13:13;4.13;;;0.70;;
81864;SDS011;71313;43.514;1.500;2024-02-23T01:15:39;3.85;;;1.38;;
81864;SDS011;71313;43.514;1.500;2024-02-23T01:18:06;8.55;;;1.15;;
81864;SDS011;71313;43.514;1.500;2024-02-23T01:20:32;6.88;;;1.42;;
81864;SDS011;71313;43.514;1.500;2024-02-23T01:22:58;7.95;;;0.85;;
81864;SDS011;71313;43.514;1.500;2024-02-23T01:25:23;5.10;;;1.00;;
81864;SDS011;71313;43.514;1.500;2024-02-23T01:27:49;6.95;;;1.30;;
81864;SDS011;71313;43.514;1.500;2024-02-23T01:30:14;6.22;;;1.17;;
81864;SDS011;71313;43.514;1.500;2024-02-23T01:32:40;7.93;;;1.30;;
81864;SDS011;71313;43.514;1.500;2024-02-23T01:35:06;9.27;;;2.05;;
81864;SDS011;71313;43.514;1.500;2024-02-23T01:37:32;6.40;;;1.10;;
81864;SDS011;71313;43.514;1.500;2024-02-23T01:39:58;4.78;;;1.13;;
81864;SDS011;71313;43.514;1.500;2024-02-23T01:42:24;6.38;;;1.05;;
81864;SDS011;71313;43.514;1.500;2024-02-23T01:44:51;2.75;;;1.10;;
81864;SDS011;71313;43.514;1.500;2024-02-23T01:47:16;6.82;;;1.10;;
81864;SDS011;71313;43.514;1.500;2024-02-23T01:49:42;4.70;;;1.00;;
81864;SDS011;71313;43.514;1.500;2024-02-23T01:52:10;5.85;;;1.10;;
81864;SDS011;71313;43.514;1.500;2024-02-23T01:54:35;4.00;;;0.82;;
81864;SDS011;71313;43.514;1.500;2024-02-23T01:57:01;10.73;;;1.23;;
81864;SDS011;71313;43.514;1.500;2024-02-23T01:59:26;4.38;;;0.90;;
81864;SDS011;71313;43.514;1.500;2024-02-23T02:01:53;5.30;;;1.20;;
81864;SDS011;71313;43.514;1.500;2024-02-23T02:04:18;7.03;;;1.10;;
81864;SDS011;71313;43.514;1.500;2024-02-23T02:06:45;6.40;;;1.00;;
81864;SDS011;71313;43.514;1.500;2024-02-23T02:09:11;7.32;;;1.10;;
81864;SDS011;71313;43.514;1.500;2024-02-23T02:11:46;8.57;;;1.10;;
81864;SDS011;71313;43.514;1.500;2024-02-23T02:14:13;6.40;;;1.20;;
81864;SDS011;71313;43.514;1.500;2024-02-23T02:16:39;6.82;;;1.00;;
81864;SDS011;71313;43.514;1.500;2024-02-23T02:19:04;5.97;;;1.10;;
81864;SDS011;71313;43.514;1.500;2024-02-23T02:21:30;7.47;;;1.63;;
81864;SDS011;71313;43.514;1.500;2024-02-23T02:23:57;4.82;;;1.13;;
81864;SDS011;71313;43.514;1.500;2024-02-23T02:26:22;5.80;;;1.20;;
81864;SDS011;71313;43.514;1.500;2024-02-23T02:28:47;5.68;;;1.38;;
81864;SDS011;71313;43.514;1.500;2024-02-23T02:31:13;5.70;;;1.23;;
81864;SDS011;71313;43.514;1.500;2024-02-23T02:33:39;7.40;;;1.70;;
81864;SDS011;71313;43.514;1.500;2024-02-23T02:36:05;4.95;;;1.23;;
81864;SDS011;71313;43.514;1.500;2024-02-23T02:38:31;5.03;;;1.30;;
81864;SDS011;71313;43.514;1.500;2024-02-23T02:40:58;10.13;;;1.55;;
81864;SDS011;71313;43.514;1.500;2024-02-23T02:43:25;6.85;;;1.05;;
81864;SDS011;71313;43.514;1.500;2024-02-23T02:45:50;5.05;;;1.05;;
81864;SDS011;71313;43.514;1.500;2024-02-23T02:48:16;5.05;;;1.15;;
81864;SDS011;71313;43.514;1.500;2024-02-23T02:50:42;4.18;;;0.98;;
81864;SDS011;71313;43.514;1.500;2024-02-23T02:53:07;5.70;;;0.65;;
81864;SDS011;71313;43.514;1.500;2024-02-23T02:55:33;8.85;;;1.20;;
81864;SDS011;71313;43.514;1.500;2024-02-23T02:57:58;5.88;;;1.20;;
81864;SDS011;71313;43.514;1.500;2024-02-23T03:00:23;3.38;;;0.55;;
81864;SDS011;71313;43.514;1.500;2024-02-23T03:02:49;5.85;;;1.08;;
81864;SDS011;71313;43.514;1.500;2024-02-23T03:05:15;3.85;;;0.80;;
81864;SDS011;71313;43.514;1.500;2024-02-23T03:07:40;2.88;;;0.70;;
81864;SDS011;71313;43.514;1.500;2024-02-23T03:10:06;7.78;;;1.27;;
81864;SDS011;71313;43.514;1.500;2024-02-23T03:12:32;7.22;;;0.90;;
81864;SDS011;71313;43.514;1.500;2024-02-23T03:14:57;6.05;;;0.80;;
81864;SDS011;71313;43.514;1.500;2024-02-23T03:17:23;4.05;;;1.05;;
81864;SDS011;71313;43.514;1.500;2024-02-23T03:19:49;6.05;;;0.80;;
81864;SDS011;71313;43.514;1.500;2024-02-23T03:22:15;4.40;;;0.68;;
81864;SDS011;71313;43.514;1.500;2024-02-23T03:24:41;4.22;;;0.82;;
81864;SDS011;71313;43.514;1.500;2024-02-23T03:27:06;3.25;;;0.95;;
81864;SDS011;71313;43.514;1.500;2024-02-23T03:29:32;3.15;;;0.80;;
81864;SDS011;71313;43.514;1.500;2024-02-23T03:31:57;4.38;;;0.90;;
81864;SDS011;71313;43.514;1.500;2024-02-23T03:34:23;4.55;;;1.00;;
81864;SDS011;71313;43.514;1.500;2024-02-23T03:36:48;6.85;;;0.90;;
81864;SDS011;71313;43.514;1.500;2024-02-23T03:39:14;8.32;;;0.98;;
81864;SDS011;71313;43.514;1.500;2024-02-23T03:41:39;7.40;;;1.10;;
81864;SDS011;71313;43.514;1.500;2024-02-23T03:44:05;5.45;;;1.00;;
81864;SDS011;71313;43.514;1.500;2024-02-23T03:46:30;5.85;;;0.70;;
81864;SDS011;71313;43.514;1.500;2024-02-23T03:48:55;10.60;;;1.05;;
81864;SDS011;71313;43.514;1.500;2024-02-23T03:51:21;5.20;;;1.05;;
81864;SDS011;71313;43.514;1.500;2024-02-23T03:53:47;4.88;;;0.80;;
81864;SDS011;71313;43.514;1.500;2024-02-23T03:56:12;6.85;;;1.67;;
81864;SDS011;71313;43.514;1.500;2024-02-23T03:58:38;3.67;;;0.60;;
81864;SDS011;71313;43.514;1.500;2024-02-23T04:01:03;4.78;;;0.60;;
81864;SDS011;71313;43.514;1.500;2024-02-23T04:03:28;2.58;;;0.68;;
81864;SDS011;71313;43.514;1.500;2024-02-23T04:05:54;4.93;;;0.70;;
81864;SDS011;71313;43.514;1.500;2024-02-23T04:08:19;3.53;;;0.90;;
81864;SDS011;71313;43.514;1.500;2024-02-23T04:10:44;3.00;;;0.60;;
81864;SDS011;71313;43.514;1.500;2024-02-23T04:13:10;3.90;;;0.55;;
81864;SDS011;71313;43.514;1.500;2024-02-23T04:15:38;6.60;;;0.60;;
81864;SDS011;71313;43.514;1.500;2024-02-23T04:18:04;4.80;;;0.52;;
81864;SDS011;71313;43.514;1.500;2024-02-23T04:20:30;2.95;;;0.60;;
81864;SDS011;71313;43.514;1.500;2024-02-23T04:22:55;3.25;;;0.40;;
81864;SDS011;71313;43.514;1.500;2024-02-23T04:25:21;4.18;;;0.65;;
81864;SDS011;71313;43.514;1.500;2024-02-23T04:27:46;4.75;;;0.50;;
81864;SDS011;71313;43.514;1.500;2024-02-23T04:30:12;3.15;;;0.40;;
81864;SDS011;71313;43.514;1.500;2024-02-23T04:32:39;1.98;;;0.50;;
81864;SDS011;71313;43.514;1.500;2024-02-23T04:35:04;4.10;;;0.55;;
81864;SDS011;71313;43.514;1.500;2024-02-23T04:37:30;1.35;;;0.40;;
81864;SDS011;71313;43.514;1.500;2024-02-23T04:39:55;3.05;;;0.50;;
81864;SDS011;71313;43.514;1.500;2024-02-23T04:42:21;3.30;;;0.40;;
81864;SDS011;71313;43.514;1.500;2024-02-23T04:44:46;3.40;;;0.47;;
81864;SDS011;71313;43.514;1.500;2024-02-23T04:47:14;1.77;;;0.30;;
81864;SDS011;71313;43.514;1.500;2024-02-23T04:49:40;3.38;;;0.50;;
81864;SDS011;71313;43.514;1.500;2024-02-23T04:52:05;2.80;;;0.40;;
81864;SDS011;71313;43.514;1.500;2024-02-23T04:54:31;2.25;;;0.50;;
81864;SDS011;71313;43.514;1.500;2024-02-23T04:56:56;2.05;;;0.40;;
81864;SDS011;71313;43.514;1.500;2024-02-23T04:59:22;2.15;;;0.30;;
81864;SDS011;71313;43.514;1.500;2024-02-23T05:01:47;3.80;;;0.60;;
81864;SDS011;71313;43.514;1.500;2024-02-23T05:04:12;2.60;;;0.63;;
81864;SDS011;71313;43.514;1.500;2024-02-23T05:06:38;2.97;;;0.47;;
81864;SDS011;71313;43.514;1.500;2024-02-23T05:09:03;2.47;;;0.32;;
81864;SDS011;71313;43.514;1.500;2024-02-23T05:11:30;2.80;;;0.40;;
81864;SDS011;71313;43.514;1.500;2024-02-23T05:13:56;2.25;;;0.40;;
81864;SDS011;71313;43.514;1.500;2024-02-23T05:16:21;2.53;;;0.50;;
81864;SDS011;71313;43.514;1.500;2024-02-23T05:18:46;1.40;;;0.40;;
81864;SDS011;71313;43.514;1.500;2024-02-23T05:21:12;2.88;;;0.32;;
81864;SDS011;71313;43.514;1.500;2024-02-23T05:23:39;1.65;;;0.50;;
81864;SDS011;71313;43.514;1.500;2024-02-23T05:26:05;1.75;;;0.40;;
81864;SDS011;71313;43.514;1.500;2024-02-23T05:28:30;2.30;;;0.57;;
81864;SDS011;71313;43.514;1.500;2024-02-23T05:30:55;2.90;;;0.52;;
81864;SDS011;71313;43.514;1.500;2024-02-23T05:33:21;1.23;;;0.43;;
81864;SDS011;71313;43.514;1.500;2024-02-23T05:35:47;4.43;;;0.60;;
81864;SDS011;71313;43.514;1.500;2024-02-23T05:38:15;3.75;;;0.82;;
81864;SDS011;71313;43.514;1.500;2024-02-23T05:40:40;2.70;;;0.60;;
81864;SDS011;71313;43.514;1.500;2024-02-23T05:43:06;3.17;;;0.82;;
81864;SDS011;71313;43.514;1.500;2024-02-23T05:45:31;2.45;;;0.40;;
81864;SDS011;71313;43.514;1.500;2024-02-23T05:47:57;1.38;;;0.30;;
81864;SDS011;71313;43.514;1.500;2024-02-23T05:50:22;3.35;;;0.30;;
81864;SDS011;71313;43.514;1.500;2024-02-23T05:52:48;3.22;;;1.20;;
81864;SDS011;71313;43.514;1.500;2024-02-23T05:55:13;3.03;;;0.30;;
81864;SDS011;71313;43.514;1.500;2024-02-23T05:57:39;3.03;;;0.47;;
81864;SDS011;71313;43.514;1.500;2024-02-23T06:00:05;1.58;;;0.68;;
81864;SDS011;71313;43.514;1.500;2024-02-23T06:02:32;2.65;;;0.40;;
81864;SDS011;71313;43.514;1.500;2024-02-23T06:04:57;2.55;;;0.30;;
81864;SDS011;71313;43.514;1.500;2024-02-23T06:07:23;3.72;;;0.40;;
81864;SDS011;71313;43.514;1.500;2024-02-23T06:09:54;1.30;;;0.40;;
81864;SDS011;71313;43.514;1.500;2024-02-23T06:12:22;3.25;;;0.40;;
81864;SDS011;71313;43.514;1.500;2024-02-23T06:14:50;5.15;;;0.60;;
81864;SDS011;71313;43.514;1.500;2024-02-23T06:17:16;2.75;;;0.52;;
81864;SDS011;71313;43.514;1.500;2024-02-23T06:19:41;0.77;;;0.35;;
81864;SDS011;71313;43.514;1.500;2024-02-23T06:22:07;3.03;;;0.38;;
81864;SDS011;71313;43.514;1.500;2024-02-23T06:24:35;1.25;;;0.30;;
81864;SDS011;71313;43.514;1.500;2024-02-23T06:27:00;1.13;;;0.30;;
81864;SDS011;71313;43.514;1.500;2024-02-23T06:29:28;1.60;;;0.40;;
81864;SDS011;71313;43.514;1.500;2024-02-23T06:31:54;1.77;;;0.40;;
81864;SDS011;71313;43.514;1.500;2024-02-23T06:34:19;2.97;;;0.43;;
81864;SDS011;71313;43.514;1.500;2024-02-23T06:36:44;3.42;;;0.50;;
81864;SDS011;71313;43.514;1.500;2024-02-23T06:39:10;2.38;;;0.32;;
81864;SDS011;71313;43.514;1.500;2024-02-23T06:41:36;2.40;;;0.40;;
81864;SDS011;71313;43.514;1.500;2024-02-23T06:44:03;2.88;;;0.40;;
81864;SDS011;71313;43.514;1.500;2024-02-23T06:46:29;2.05;;;0.43;;
81864;SDS011;71313;43.514;1.500;2024-02-23T06:48:54;1.35;;;0.40;;
81864;SDS011;71313;43.514;1.500;2024-02-23T06:51:20;1.73;;;0.30;;
81864;SDS011;71313;43.514;1.500;2024-02-23T06:53:46;1.42;;;0.75;;
81864;SDS011;71313;43.514;1.500;2024-02-23T06:56:12;2.55;;;0.52;;
81864;SDS011;71313;43.514;1.500;2024-02-23T06:58:37;2.63;;;0.47;;
81864;SDS011;71313;43.514;1.500;2024-02-23T07:01:04;2.03;;;0.50;;
81864;SDS011;71313;43.514;1.500;2024-02-23T07:03:30;2.78;;;0.50;;
81864;SDS011;71313;43.514;1.500;2024-02-23T07:05:56;1.67;;;0.45;;
81864;SDS011;71313;43.514;1.500;2024-02-23T07:08:22;3.20;;;0.40;;
81864;SDS011;71313;43.514;1.500;2024-02-23T07:10:47;2.10;;;0.30;;
81864;SDS011;71313;43.514;1.500;2024-02-23T07:13:12;2.25;;;0.30;;
81864;SDS011;71313;43.514;1.500;2024-02-23T07:15:38;3.20;;;0.68;;
81864;SDS011;71313;43.514;1.500;2024-02-23T07:18:03;1.27;;;0.40;;
81864;SDS011;71313;43.514;1.500;2024-02-23T07:20:29;1.95;;;0.50;;
81864;SDS011;71313;43.514;1.500;2024-02-23T07:22:55;2.95;;;0.63;;
81864;SDS011;71313;43.514;1.500;2024-02-23T07:25:20;2.42;;;0.52;;
81864;SDS011;71313;43.514;1.500;2024-02-23T07:27:46;3.00;;;0.63;;
81864;SDS011;71313;43.514;1.500;2024-02-23T07:30:14;2.45;;;0.60;;
81864;SDS011;71313;43.514;1.500;2024-02-23T07:32:39;1.92;;;0.50;;
81864;SDS011;71313;43.514;1.500;2024-02-23T07:35:05;5.22;;;1.20;;
81864;SDS011;71313;43.514;1.500;2024-02-23T07:37:30;2.58;;;0.70;;
81864;SDS011;71313;43.514;1.500;2024-02-23T07:39:56;1.95;;;0.47;;
81864;SDS011;71313;43.514;1.500;2024-02-23T07:42:21;3.60;;;0.70;;
81864;SDS011;71313;43.514;1.500;2024-02-23T07:44:46;1.40;;;0.43;;
81864;SDS011;71313;43.514;1.500;2024-02-23T07:47:12;1.63;;;0.43;;
81864;SDS011;71313;43.514;1.500;2024-02-23T07:49:38;2.80;;;0.70;;
81864;SDS011;71313;43.514;1.500;2024-02-23T07:52:05;2.45;;;1.00;;
81864;SDS011;71313;43.514;1.500;2024-02-23T07:54:31;1.20;;;0.60;;
81864;SDS011;71313;43.514;1.500;2024-02-23T07:56:57;3.22;;;0.63;;
81864;SDS011;71313;43.514;1.500;2024-02-23T07:59:22;1.67;;;0.88;;
81864;SDS011;71313;43.514;1.500;2024-02-23T08:01:47;1.98;;;0.55;;
81864;SDS011;71313;43.514;1.500;2024-02-23T08:04:13;2.25;;;0.60;;
81864;SDS011;71313;43.514;1.500;2024-02-23T08:06:38;1.10;;;0.57;;
81864;SDS011;71313;43.514;1.500;2024-02-23T08:09:04;2.78;;;0.85;;
81864;SDS011;71313;43.514;1.500;2024-02-23T08:11:30;1.13;;;0.40;;
81864;SDS011;71313;43.514;1.500;2024-02-23T08:13:55;2.33;;;0.50;;
81864;SDS011;71313;43.514;1.500;2024-02-23T08:16:20;0.98;;;0.30;;
81864;SDS011;71313;43.514;1.500;2024-02-23T08:18:46;2.85;;;0.65;;
81864;SDS011;71313;43.514;1.500;2024-02-23T08:21:11;2.20;;;0.60;;
81864;SDS011;71313;43.514;1.500;2024-02-23T08:23:36;2.72;;;0.80;;
81864;SDS011;71313;43.514;1.500;2024-02-23T08:26:02;3.92;;;0.60;;
81864;SDS011;71313;43.514;1.500;2024-02-23T08:28:27;1.83;;;0.50;;
81864;SDS011;71313;43.514;1.500;2024-02-23T08:30:53;2.67;;;0.55;;
81864;SDS011;71313;43.514;1.500;2024-02-23T08:33:19;2.17;;;0.43;;
81864;SDS011;71313;43.514;1.500;2024-02-23T08:35:45;0.98;;;0.50;;
81864;SDS011;71313;43.514;1.500;2024-02-23T08:38:10;3.97;;;0.63;;
81864;SDS011;71313;43.514;1.500;2024-02-23T08:40:36;2.83;;;0.47;;
81864;SDS011;71313;43.514;1.500;2024-02-23T08:43:01;2.65;;;0.73;;
81864;SDS011;71313;43.514;1.500;2024-02-23T08:45:27;1.90;;;0.45;;
81864;SDS011;71313;43.514;1.500;2024-02-23T08:47:53;2.10;;;0.52;;
81864;SDS011;71313;43.514;1.500;2024-02-23T08:50:18;1.42;;;0.40;;
81864;SDS011;71313;43.514;1.500;2024-02-23T08:52:44;1.92;;;0.70;;
81864;SDS011;71313;43.514;1.500;2024-02-23T08:55:09;2.95;;;0.52;;
81864;SDS011;71313;43.514;1.500;2024-02-23T08:57:36;2.22;;;0.45;;
81864;SDS011;71313;43.514;1.500;2024-02-23T09:00:02;2.20;;;0.60;;
81864;SDS011;71313;43.514;1.500;2024-02-23T09:02:29;1.75;;;0.52;;
81864;SDS011;71313;43.514;1.500;2024-02-23T09:04:56;1.00;;;0.40;;
81864;SDS011;71313;43.514;1.500;2024-02-23T09:07:21;1.63;;;0.65;;
81864;SDS011;71313;43.514;1.500;2024-02-23T09:09:46;2.35;;;0.93;;
81864;SDS011;71313;43.514;1.500;2024-02-23T09:12:13;2.25;;;0.50;;
81864;SDS011;71313;43.514;1.500;2024-02-23T09:14:41;2.58;;;0.45;;
81864;SDS011;71313;43.514;1.500;2024-02-23T09:17:07;2.67;;;0.50;;
81864;SDS011;71313;43.514;1.500;2024-02-23T09:19:33;2.22;;;0.47;;
81864;SDS011;71313;43.514;1.500;2024-02-23T09:21:59;2.60;;;0.40;;
81864;SDS011;71313;43.514;1.500;2024-02-23T09:24:25;2.28;;;0.40;;
81864;SDS011;71313;43.514;1.500;2024-02-23T09:26:51;2.58;;;0.43;;
81864;SDS011;71313;43.514;1.500;2024-02-23T09:29:16;1.33;;;0.50;;
81864;SDS011;71313;43.514;1.500;2024-02-23T09:31:41;3.17;;;0.50;;
81864;SDS011;71313;43.514;1.500;2024-02-23T09:34:07;2.35;;;0.50;;
81864;SDS011;71313;43.514;1.500;2024-02-23T09:36:32;2.00;;;0.50;;
81864;SDS011;71313;43.514;1.500;2024-02-23T09:38:58;1.38;;;0.57;;
81864;SDS011;71313;43.514;1.500;2024-02-23T09:41:23;1.17;;;0.55;;
81864;SDS011;71313;43.514;1.500;2024-02-23T09:43:49;4.63;;;0.60;;
81864;SDS011;71313;43.514;1.500;2024-02-23T09:46:16;2.65;;;0.55;;
81864;SDS011;71313;43.514;1.500;2024-02-23T09:48:43;1.40;;;0.55;;
81864;SDS011;71313;43.514;1.500;2024-02-23T09:51:09;1.75;;;0.52;;
81864;SDS011;71313;43.514;1.500;2024-02-23T09:53:36;1.20;;;0.40;;
81864;SDS011;71313;43.514;1.500;2024-02-23T09:56:03;1.77;;;0.75;;
81864;SDS011;71313;43.514;1.500;2024-02-23T09:58:34;2.42;;;0.63;;
81864;SDS011;71313;43.514;1.500;2024-02-23T10:01:01;4.18;;;0.77;;
81864;SDS011;71313;43.514;1.500;2024-02-23T10:03:29;4.53;;;0.85;;
81864;SDS011;71313;43.514;1.500;2024-02-23T10:05:58;1.90;;;0.70;;
81864;SDS011;71313;43.514;1.500;2024-02-23T10:08:26;1.63;;;0.55;;
81864;SDS011;71313;43.514;1.500;2024-02-23T10:10:52;2.63;;;0.50;;
81864;SDS011;71313;43.514;1.500;2024-02-23T10:13:18;2.70;;;0.52;;
81864;SDS011;71313;43.514;1.500;2024-02-23T10:15:48;3.30;;;0.60;;
81864;SDS011;71313;43.514;1.500;2024-02-23T10:18:14;1.15;;;0.40;;
81864;SDS011;71313;43.514;1.500;2024-02-23T10:20:40;1.20;;;0.43;;
81864;SDS011;71313;43.514;1.500;2024-02-23T10:23:05;2.90;;;0.50;;
81864;SDS011;71313;43.514;1.500;2024-02-23T10:25:35;1.35;;;0.30;;
81864;SDS011;71313;43.514;1.500;2024-02-23T10:28:02;6.03;;;4.05;;
81864;SDS011;71313;43.514;1.500;2024-02-23T10:30:30;2.20;;;0.80;;
81864;SDS011;71313;43.514;1.500;2024-02-23T10:32:56;2.58;;;0.50;;
81864;SDS011;71313;43.514;1.500;2024-02-23T10:35:23;2.53;;;0.60;;
81864;SDS011;71313;43.514;1.500;2024-02-23T10:37:49;2.22;;;0.52;;
81864;SDS011;71313;43.514;1.500;2024-02-23T10:40:17;1.67;;;0.40;;
81864;SDS011;71313;43.514;1.500;2024-02-23T10:42:43;1.52;;;0.40;;
81864;SDS011;71313;43.514;1.500;2024-02-23T10:45:16;1.13;;;0.50;;
81864;SDS011;71313;43.514;1.500;2024-02-23T10:47:45;1.83;;;0.55;;
81864;SDS011;71313;43.514;1.500;2024-02-23T10:50:13;2.03;;;0.82;;
81864;SDS011;71313;43.514;1.500;2024-02-23T10:52:40;3.33;;;0.70;;
81864;SDS011;71313;43.514;1.500;2024-02-23T10:55:09;2.70;;;0.95;;
81864;SDS011;71313;43.514;1.500;2024-02-23T10:57:35;1.45;;;0.68;;
81864;SDS011;71313;43.514;1.500;2024-02-23T11:00:01;3.72;;;1.50;;
81864;SDS011;71313;43.514;1.500;2024-02-23T11:02:36;2.83;;;0.85;;
81864;SDS011;71313;43.514;1.500;2024-02-23T11:05:06;3.05;;;0.80;;
81864;SDS011;71313;43.514;1.500;2024-02-23T11:07:37;2.17;;;0.60;;
81864;SDS011;71313;43.514;1.500;2024-02-23T11:10:05;3.20;;;0.60;;
81864;SDS011;71313;43.514;1.500;2024-02-23T11:12:31;1.70;;;0.77;;
81864;SDS011;71313;43.514;1.500;2024-02-23T11:14:59;3.65;;;1.38;;
81864;SDS011;71313;43.514;1.500;2024-02-23T11:17:29;3.45;;;1.10;;
81864;SDS011;71313;43.514;1.500;2024-02-23T11:19:56;3.42;;;1.40;;
81864;SDS011;71313;43.514;1.500;2024-02-23T11:22:25;3.38;;;1.20;;
81864;SDS011;71313;43.514;1.500;2024-02-23T11:24:51;2.10;;;0.90;;
81864;SDS011;71313;43.514;1.500;2024-02-23T11:27:17;3.47;;;0.90;;
81864;SDS011;71313;43.514;1.500;2024-02-23T11:29:43;1.50;;;0.75;;
81864;SDS011;71313;43.514;1.500;2024-02-23T11:32:14;1.35;;;0.77;;
81864;SDS011;71313;43.514;1.500;2024-02-23T11:34:53;2.60;;;0.65;;
81864;SDS011;71313;43.514;1.500;2024-02-23T11:37:21;3.63;;;0.80;;
81864;SDS011;71313;43.514;1.500;2024-02-23T11:39:46;1.67;;;0.52;;
81864;SDS011;71313;43.514;1.500;2024-02-23T11:42:13;1.60;;;0.80;;
81864;SDS011;71313;43.514;1.500;2024-02-23T11:44:39;3.40;;;0.65;;
81864;SDS011;71313;43.514;1.500;2024-02-23T11:47:06;3.05;;;1.10;;
81864;SDS011;71313;43.514;1.500;2024-02-23T11:49:32;1.30;;;0.60;;
81864;SDS011;71313;43.514;1.500;2024-02-23T11:51:57;1.77;;;1.00;;
81864;SDS011;71313;43.514;1.500;2024-02-23T11:54:23;2.55;;;0.75;;
81864;SDS011;71313;43.514;1.500;2024-02-23T11:56:49;1.90;;;0.68;;
81864;SDS011;71313;43.514;1.500;2024-02-23T11:59:17;1.65;;;0.68;;
81864;SDS011;71313;43.514;1.500;2024-02-23T12:01:46;2.78;;;0.60;;
81864;SDS011;71313;43.514;1.500;2024-02-23T12:04:12;1.00;;;0.45;;
81864;SDS011;71313;43.514;1.500;2024-02-23T12:06:40;1.33;;;0.63;;
81864;SDS011;71313;43.514;1.500;2024-02-23T12:09:06;2.83;;;0.90;;
81864;SDS011;71313;43.514;1.500;2024-02-23T12:11:37;2.40;;;0.60;;
81864;SDS011;71313;43.514;1.500;2024-02-23T12:14:03;1.25;;;0.55;;
81864;SDS011;71313;43.514;1.500;2024-02-23T12:16:32;0.75;;;0.50;;
81864;SDS011;71313;43.514;1.500;2024-02-23T12:18:59;1.15;;;0.70;;
81864;SDS011;71313;43.514;1.500;2024-02-23T12:21:26;1.00;;;0.50;;
81864;SDS011;71313;43.514;1.500;2024-02-23T12:23:52;1.60;;;0.80;;
81864;SDS011;71313;43.514;1.500;2024-02-23T12:26:18;2.17;;;0.60;;
81864;SDS011;71313;43.514;1.500;2024-02-23T12:28:44;1.77;;;0.60;;
81864;SDS011;71313;43.514;1.500;2024-02-23T12:31:10;4.85;;;0.75;;
81864;SDS011;71313;43.514;1.500;2024-02-23T12:33:40;1.33;;;0.80;;
81864;SDS011;71313;43.514;1.500;2024-02-23T12:36:06;0.82;;;0.40;;
81864;SDS011;71313;43.514;1.500;2024-02-23T12:38:33;1.40;;;0.63;;
81864;SDS011;71313;43.514;1.500;2024-02-23T12:40:59;1.20;;;0.52;;
81864;SDS011;71313;43.514;1.500;2024-02-23T12:43:25;0.80;;;0.60;;
81864;SDS011;71313;43.514;1.500;2024-02-23T12:45:54;6.97;;;0.93;;
81864;SDS011;71313;43.514;1.500;2024-02-23T12:48:20;0.70;;;0.43;;
81864;SDS011;71313;43.514;1.500;2024-02-23T12:50:46;1.15;;;0.47;;
81864;SDS011;71313;43.514;1.500;2024-02-23T12:56:07;0.77;;;0.47;;
81864;SDS011;71313;43.514;1.500;2024-02-23T12:58:35;0.75;;;0.30;;
81864;SDS011;71313;43.514;1.500;2024-02-23T13:01:01;1.00;;;0.30;;
81864;SDS011;71313;43.514;1.500;2024-02-23T13:03:27;1.00;;;0.20;;
81864;SDS011;71313;43.514;1.500;2024-02-23T13:05:54;1.30;;;0.30;;
81864;SDS011;71313;43.514;1.500;2024-02-23T13:08:20;1.25;;;0.30;;
81864;SDS011;71313;43.514;1.500;2024-02-23T13:10:47;0.57;;;0.20;;
81864;SDS011;71313;43.514;1.500;2024-02-23T13:13:12;2.08;;;0.57;;
81864;SDS011;71313;43.514;1.500;2024-02-23T13:15:39;1.95;;;0.40;;
81864;SDS011;71313;43.514;1.500;2024-02-23T13:18:06;0.77;;;0.30;;
81864;SDS011;71313;43.514;1.500;2024-02-23T13:20:31;1.60;;;0.70;;
81864;SDS011;71313;43.514;1.500;2024-02-23T13:22:56;0.98;;;0.52;;
81864;SDS011;71313;43.514;1.500;2024-02-23T13:25:22;1.13;;;0.50;;
81864;SDS011;71313;43.514;1.500;2024-02-23T13:27:47;0.65;;;0.32;;
81864;SDS011;71313;43.514;1.500;2024-02-23T13:30:13;1.02;;;0.52;;
81864;SDS011;71313;43.514;1.500;2024-02-23T13:32:39;1.48;;;0.60;;
81864;SDS011;71313;43.514;1.500;2024-02-23T13:35:04;2.15;;;0.60;;
81864;SDS011;71313;43.514;1.500;2024-02-23T13:37:31;2.03;;;0.50;;
81864;SDS011;71313;43.514;1.500;2024-02-23T13:39:57;1.02;;;0.32;;
81864;SDS011;71313;43.514;1.500;2024-02-23T13:42:22;2.20;;;0.70;;
81864;SDS011;71313;43.514;1.500;2024-02-23T13:44:47;1.20;;;0.45;;
81864;SDS011;71313;43.514;1.500;2024-02-23T13:47:13;0.90;;;0.40;;
81864;SDS011;71313;43.514;1.500;2024-02-23T13:49:38;1.52;;;0.63;;
81864;SDS011;71313;43.514;1.500;2024-02-23T13:52:04;2.72;;;0.60;;
81864;SDS011;71313;43.514;1.500;2024-02-23T13:54:29;1.60;;;0.50;;
81864;SDS011;71313;43.514;1.500;2024-02-23T13:56:55;2.38;;;0.50;;
81864;SDS011;71313;43.514;1.500;2024-02-23T13:59:20;1.52;;;0.50;;
81864;SDS011;71313;43.514;1.500;2024-02-23T14:01:46;1.95;;;0.50;;
81864;SDS011;71313;43.514;1.500;2024-02-23T14:04:12;3.20;;;1.02;;
81864;SDS011;71313;43.514;1.500;2024-02-23T14:06:37;1.20;;;0.30;;
81864;SDS011;71313;43.514;1.500;2024-02-23T14:09:02;1.73;;;0.35;;
81864;SDS011;71313;43.514;1.500;2024-02-23T14:11:29;1.23;;;0.45;;
81864;SDS011;71313;43.514;1.500;2024-02-23T14:13:55;1.30;;;0.63;;
81864;SDS011;71313;43.514;1.500;2024-02-23T14:16:21;1.13;;;0.40;;
81864;SDS011;71313;43.514;1.500;2024-02-23T14:18:46;0.65;;;0.35;;
81864;SDS011;71313;43.514;1.500;2024-02-23T14:21:11;0.98;;;0.40;;
81864;SDS011;71313;43.514;1.500;2024-02-23T14:23:39;1.15;;;0.40;;
81864;SDS011;71313;43.514;1.500;2024-02-23T14:26:04;1.75;;;0.35;;
81864;SDS011;71313;43.514;1.500;2024-02-23T14:28:29;1.02;;;0.30;;
81864;SDS011;71313;43.514;1.500;2024-02-23T14:30:55;2.28;;;0.40;;
81864;SDS011;71313;43.514;1.500;2024-02-23T14:33:20;1.08;;;0.50;;
81864;SDS011;71313;43.514;1.500;2024-02-23T14:35:46;3.55;;;0.50;;
81864;SDS011;71313;43.514;1.500;2024-02-23T14:38:12;1.27;;;0.73;;
81864;SDS011;71313;43.514;1.500;2024-02-23T14:40:37;0.70;;;0.50;;
81864;SDS011;71313;43.514;1.500;2024-02-23T14:43:03;2.50;;;0.85;;